createdAt,value
2023-01-18T00:01:13.993Z,11.10
2023-01-18T00:03:42.275Z,11.00
2023-01-18T00:06:10.871Z,11.00
2023-01-18T00:08:39.146Z,11.10
2023-01-18T00:11:11.622Z,11.10
2023-01-18T00:13:39.216Z,11.10
2023-01-18T00:16:10.223Z,11.10
2023-01-18T00:18:37.297Z,11.10
2023-01-18T00:21:09.718Z,11.10
2023-01-18T00:23:37.612Z,11.10
2023-01-18T00:26:07.406Z,11.10
2023-01-18T00:28:34.519Z,11.00
2023-01-18T00:31:01.610Z,11.10
2023-01-18T00:33:28.545Z,11.00
2023-01-18T00:35:59.548Z,11.00
2023-01-18T00:38:26.960Z,11.00
2023-01-18T00:40:54.065Z,11.00
2023-01-18T00:43:39.348Z,11.10
2023-01-18T00:46:06.396Z,11.00
2023-01-18T00:48:33.673Z,11.00
2023-01-18T00:51:00.712Z,11.00
2023-01-18T00:53:28.343Z,10.90
2023-01-18T00:55:55.646Z,10.90
2023-01-18T00:58:22.678Z,10.90
2023-01-18T01:00:52.896Z,10.80
2023-01-18T01:03:23.069Z,10.80
2023-01-18T01:06:08.423Z,10.80
2023-01-18T01:08:35.375Z,10.80
2023-01-18T01:11:09.446Z,10.80
2023-01-18T01:13:56.269Z,10.70
2023-01-18T01:16:42.802Z,10.80
2023-01-18T01:19:28.399Z,10.70
2023-01-18T01:22:13.717Z,10.70
2023-01-18T01:24:59.264Z,10.60
2023-01-18T01:27:26.546Z,10.50
2023-01-18T01:29:54.361Z,10.40
2023-01-18T01:32:21.305Z,10.40
2023-01-18T01:34:48.243Z,10.30
2023-01-18T01:37:15.171Z,10.30
2023-01-18T01:39:42.089Z,10.30
2023-01-18T01:42:11.936Z,10.20
2023-01-18T01:44:52.176Z,10.20
2023-01-18T01:47:28.564Z,10.20
2023-01-18T01:50:01.354Z,10.10
2023-01-18T01:52:34.132Z,10.10
2023-01-18T01:55:11.099Z,10.10
2023-01-18T01:57:46.281Z,10.00
2023-01-18T02:00:19.653Z,10.10
2023-01-18T02:02:50.937Z,10.00
2023-01-18T02:05:18.345Z,10.10
2023-01-18T02:07:45.771Z,10.10
2023-01-18T02:10:12.922Z,10.00
2023-01-18T02:12:43.088Z,10.00
2023-01-18T02:15:10.825Z,9.90
2023-01-18T02:17:43.615Z,9.90
2023-01-18T02:20:24.371Z,9.90
2023-01-18T02:23:22.740Z,9.90
2023-01-18T02:25:58.995Z,9.90
2023-01-18T02:28:37.632Z,9.90
2023-01-18T02:31:20.635Z,9.90
2023-01-18T02:34:03.139Z,9.90
2023-01-18T02:36:33.514Z,9.90
2023-01-18T02:39:10.838Z,9.90
2023-01-18T02:42:11.860Z,9.80
2023-01-18T02:45:02.111Z,9.80
2023-01-18T02:47:29.970Z,9.80
2023-01-18T02:49:57.781Z,9.80
2023-01-18T02:52:54.146Z,9.80
2023-01-18T02:55:51.299Z,9.70
2023-01-18T02:58:34.602Z,9.70
2023-01-18T03:01:36.450Z,9.70
2023-01-18T03:04:14.557Z,9.70
2023-01-18T03:06:45.266Z,9.70
2023-01-18T03:09:21.251Z,9.70
2023-01-18T03:12:00.543Z,9.80
2023-01-18T03:14:39.216Z,9.70
2023-01-18T03:17:20.222Z,9.60
2023-01-18T03:20:07.731Z,9.60
2023-01-18T03:23:03.468Z,9.60
2023-01-18T03:25:41.242Z,9.60
2023-01-18T03:28:39.571Z,9.60
2023-01-18T03:31:30.011Z,9.60
2023-01-18T03:34:09.870Z,9.60
2023-01-18T03:36:41.224Z,9.50
2023-01-18T03:39:16.199Z,9.50
2023-01-18T03:41:48.472Z,9.50
2023-01-18T03:44:33.345Z,9.50
2023-01-18T03:47:00.478Z,9.50
2023-01-18T03:49:27.820Z,9.50
2023-01-18T03:52:15.688Z,9.50
2023-01-18T03:55:05.001Z,9.40
2023-01-18T03:57:55.081Z,9.50
2023-01-18T04:00:22.338Z,9.40
2023-01-18T04:02:50.801Z,9.50
2023-01-18T04:05:18.436Z,9.50
2023-01-18T04:07:45.509Z,9.50
2023-01-18T04:10:12.504Z,9.50
2023-01-18T04:12:39.721Z,9.40
2023-01-18T04:15:07.176Z,9.40
2023-01-18T04:17:34.146Z,9.40
2023-01-18T04:20:01.163Z,9.40
2023-01-18T04:22:28.159Z,9.40
2023-01-18T04:24:55.104Z,9.40
2023-01-18T04:27:24.284Z,9.40
2023-01-18T04:29:51.730Z,9.40
2023-01-18T04:32:19.015Z,9.40
2023-01-18T04:34:45.946Z,9.30
2023-01-18T04:37:12.867Z,9.30
2023-01-18T04:39:39.876Z,9.30
2023-01-18T04:42:07.048Z,9.30
2023-01-18T04:44:34.013Z,9.30
2023-01-18T04:47:00.931Z,9.20
2023-01-18T04:49:28.088Z,9.20
2023-01-18T04:51:55.072Z,9.20
2023-01-18T04:54:22.090Z,9.40
2023-01-18T04:56:49.055Z,9.40
2023-01-18T04:59:16.759Z,9.40
2023-01-18T05:01:44.994Z,9.30
2023-01-18T05:04:12.046Z,9.30
2023-01-18T05:06:39.073Z,9.30
2023-01-18T05:09:06.062Z,9.20
2023-01-18T05:11:33.175Z,9.30
2023-01-18T05:14:00.107Z,9.30
2023-01-18T05:16:27.333Z,9.30
2023-01-18T05:18:54.469Z,9.30
2023-01-18T05:21:21.565Z,9.30
2023-01-18T05:23:48.695Z,9.30
2023-01-18T05:26:21.540Z,9.30
2023-01-18T05:28:49.711Z,9.40
2023-01-18T05:31:21.075Z,9.40
2023-01-18T05:33:48.430Z,9.30
2023-01-18T05:36:15.409Z,9.30
2023-01-18T05:38:42.431Z,9.30
2023-01-18T05:41:09.401Z,9.30
2023-01-18T05:43:38.308Z,9.10
2023-01-18T05:46:05.943Z,9.00
2023-01-18T05:48:33.023Z,9.00
2023-01-18T05:51:00.054Z,8.90
2023-01-18T05:53:27.024Z,8.80
2023-01-18T05:55:58.910Z,8.80
2023-01-18T05:58:26.845Z,8.80
2023-01-18T06:00:54.693Z,8.70
2023-01-18T06:03:22.837Z,8.70
2023-01-18T06:05:51.540Z,8.70
2023-01-18T06:08:19.530Z,8.60
2023-01-18T06:10:58.801Z,8.60
2023-01-18T06:13:28.583Z,8.70
2023-01-18T06:15:59.618Z,8.70
2023-01-18T06:18:28.902Z,8.60
2023-01-18T06:20:59.081Z,8.60
2023-01-18T06:23:29.085Z,8.80
2023-01-18T06:25:56.795Z,9.00
2023-01-18T06:28:24.076Z,9.10
2023-01-18T06:30:56.466Z,9.10
2023-01-18T06:33:24.439Z,9.00
2023-01-18T06:35:52.224Z,9.10
2023-01-18T06:38:20.700Z,9.10
2023-01-18T06:40:47.680Z,9.10
2023-01-18T06:43:15.973Z,9.10
2023-01-18T06:45:42.951Z,9.00
2023-01-18T06:48:09.970Z,9.20
2023-01-18T06:50:36.923Z,9.10
2023-01-18T06:53:04.072Z,9.20
2023-01-18T06:55:31.030Z,9.30
2023-01-18T06:57:58.027Z,9.40
2023-01-18T07:00:25.091Z,9.30
2023-01-18T07:02:53.116Z,9.30
2023-01-18T07:05:20.145Z,9.20
2023-01-18T07:07:47.136Z,9.10
2023-01-18T07:10:17.316Z,9.00
2023-01-18T07:12:51.068Z,9.10
2023-01-18T07:15:22.700Z,9.10
2023-01-18T07:17:52.728Z,9.10
2023-01-18T07:20:19.975Z,9.20
2023-01-18T07:22:51.626Z,9.30
2023-01-18T07:25:20.643Z,9.30
2023-01-18T07:27:49.032Z,9.30
2023-01-18T07:30:16.711Z,9.30
2023-01-18T07:32:52.050Z,9.30
2023-01-18T07:35:23.883Z,9.30
2023-01-18T07:37:53.816Z,9.40
2023-01-18T07:40:21.905Z,9.40
2023-01-18T07:42:50.009Z,9.40
2023-01-18T07:45:16.997Z,9.40
2023-01-18T07:47:46.239Z,9.50
2023-01-18T07:50:14.406Z,9.50
2023-01-18T07:52:41.399Z,9.60
2023-01-18T07:55:09.139Z,9.60
2023-01-18T07:57:36.118Z,9.70
2023-01-18T08:00:03.668Z,9.70
2023-01-18T08:02:39.659Z,9.70
2023-01-18T08:05:09.978Z,9.70
2023-01-18T08:07:36.965Z,9.70
2023-01-18T08:10:04.174Z,9.80
2023-01-18T08:12:31.172Z,9.90
2023-01-18T08:14:58.128Z,9.90
2023-01-18T08:17:25.397Z,9.90
2023-01-18T08:19:52.369Z,9.90
2023-01-18T08:22:19.586Z,9.90
2023-01-18T08:24:46.569Z,9.90
2023-01-18T08:27:13.527Z,10.00
2023-01-18T08:29:40.463Z,10.00
2023-01-18T08:32:07.453Z,10.00
2023-01-18T08:34:34.477Z,10.00
2023-01-18T08:37:01.469Z,10.00
2023-01-18T08:39:28.521Z,10.00
2023-01-18T08:41:55.764Z,10.10
2023-01-18T08:44:22.789Z,10.10
2023-01-18T08:46:50.053Z,10.10
2023-01-18T08:49:17.032Z,10.10
2023-01-18T08:51:43.949Z,10.10
2023-01-18T08:54:10.884Z,10.20
2023-01-18T08:56:38.011Z,10.20
2023-01-18T08:59:08.471Z,10.30
2023-01-18T09:01:35.605Z,10.50
2023-01-18T09:04:02.568Z,10.50
2023-01-18T09:06:32.210Z,10.70
2023-01-18T09:08:59.957Z,10.60
2023-01-18T09:11:27.301Z,10.80
2023-01-18T09:14:00.711Z,10.90
2023-01-18T09:16:29.425Z,10.90
2023-01-18T09:18:56.682Z,11.00
2023-01-18T09:21:24.173Z,11.10
2023-01-18T09:23:51.299Z,11.10
2023-01-18T09:26:20.689Z,11.10
2023-01-18T09:28:51.089Z,11.10
2023-01-18T09:31:19.697Z,11.10
2023-01-18T09:33:53.318Z,11.00
2023-01-18T09:36:23.961Z,11.10
2023-01-18T09:38:50.984Z,11.20
2023-01-18T09:41:26.814Z,11.30
2023-01-18T09:44:34.417Z,11.30
2023-01-18T09:47:23.780Z,11.30
2023-01-18T09:49:58.132Z,11.30
2023-01-18T09:52:40.943Z,11.30
2023-01-18T09:55:27.659Z,11.30
2023-01-18T09:58:13.454Z,11.30
2023-01-18T10:00:45.884Z,11.40
2023-01-18T10:03:19.643Z,11.40
2023-01-18T10:06:10.591Z,11.40
2023-01-18T10:08:47.142Z,11.50
2023-01-18T10:11:47.485Z,11.50
2023-01-18T10:14:33.255Z,11.50
2023-01-18T10:17:04.629Z,11.60
2023-01-18T10:19:33.380Z,11.70
2023-01-18T10:22:14.684Z,11.80
2023-01-18T10:24:53.953Z,12.00
2023-01-18T10:27:36.709Z,12.10
2023-01-18T10:30:11.148Z,12.30
2023-01-18T10:32:41.974Z,12.40
2023-01-18T10:35:37.308Z,12.50
2023-01-18T10:38:08.719Z,12.60
2023-01-18T10:40:38.853Z,12.70
2023-01-18T10:43:12.608Z,12.80
2023-01-18T10:45:40.594Z,12.90
2023-01-18T10:48:16.798Z,12.80
2023-01-18T10:50:50.515Z,12.90
2023-01-18T10:53:29.429Z,13.10
2023-01-18T10:56:04.276Z,13.10
2023-01-18T10:58:37.828Z,13.00
2023-01-18T11:01:05.163Z,13.00
2023-01-18T11:03:39.635Z,12.90
2023-01-18T11:06:08.154Z,12.90
2023-01-18T11:08:36.407Z,13.20
2023-01-18T11:11:12.598Z,13.50
2023-01-18T11:13:39.550Z,13.60
2023-01-18T11:16:18.585Z,13.50
2023-01-18T11:19:02.193Z,13.70
2023-01-18T11:21:43.464Z,13.60
2023-01-18T11:24:37.913Z,13.60
2023-01-18T11:27:13.206Z,13.50
2023-01-18T11:29:46.216Z,13.60
2023-01-18T11:32:28.678Z,13.60
2023-01-18T11:35:00.100Z,13.70
2023-01-18T11:37:30.226Z,13.60
2023-01-18T11:39:57.523Z,13.60
2023-01-18T11:42:36.599Z,13.80
2023-01-18T11:45:22.777Z,13.90
2023-01-18T11:47:55.718Z,14.10
2023-01-18T11:50:43.262Z,14.30
2023-01-18T11:53:37.054Z,14.30
2023-01-18T11:56:07.077Z,14.20
2023-01-18T11:58:36.536Z,14.00
2023-01-18T12:01:43.476Z,14.00
2023-01-18T12:04:16.300Z,13.90
2023-01-18T12:06:46.218Z,13.70
2023-01-18T12:09:34.441Z,13.80
2023-01-18T12:12:20.410Z,14.00
2023-01-18T12:14:53.401Z,14.00
2023-01-18T12:17:46.287Z,13.90
2023-01-18T12:20:35.056Z,13.90
2023-01-18T12:23:14.801Z,14.00
2023-01-18T12:26:13.006Z,14.10
2023-01-18T12:28:54.492Z,14.20
2023-01-18T12:31:21.452Z,14.10
2023-01-18T12:34:07.102Z,14.20
2023-01-18T12:36:52.991Z,14.20
2023-01-18T12:40:03.329Z,14.20
2023-01-18T12:42:47.832Z,14.30
2023-01-18T12:45:38.160Z,14.40
2023-01-18T12:48:26.079Z,14.20
2023-01-18T12:50:56.255Z,14.30
2023-01-18T12:53:50.545Z,14.40
2023-01-18T12:56:35.572Z,14.20
2023-01-18T12:59:10.389Z,14.20
2023-01-18T13:01:45.885Z,14.00
2023-01-18T13:04:46.798Z,14.00
2023-01-18T13:07:21.831Z,13.90
2023-01-18T13:09:53.064Z,14.00
2023-01-18T13:12:20.788Z,14.00
2023-01-18T13:15:03.760Z,14.00
2023-01-18T13:17:39.345Z,14.00
2023-01-18T13:20:13.199Z,14.20
2023-01-18T13:23:10.689Z,14.10
2023-01-18T13:26:01.906Z,14.00
2023-01-18T13:28:29.090Z,14.50
2023-01-18T13:31:03.258Z,14.40
2023-01-18T13:33:34.723Z,14.40
2023-01-18T13:36:11.781Z,14.40
2023-01-18T13:38:53.823Z,14.50
2023-01-18T13:41:26.444Z,14.40
2023-01-18T13:44:01.333Z,14.40
2023-01-18T13:46:29.744Z,14.40
2023-01-18T13:48:57.580Z,14.40
2023-01-18T13:51:36.857Z,14.60
2023-01-18T13:54:04.410Z,14.60
2023-01-18T13:56:36.683Z,14.40
2023-01-18T13:59:13.210Z,14.40
2023-01-18T14:01:44.112Z,14.30
2023-01-18T14:04:22.895Z,14.20
2023-01-18T14:06:51.288Z,14.10
2023-01-18T14:09:29.416Z,14.00
2023-01-18T14:11:58.026Z,14.00
2023-01-18T14:14:30.327Z,14.20
2023-01-18T14:17:00.153Z,14.40
2023-01-18T14:19:29.144Z,14.40
2023-01-18T14:22:17.709Z,14.20
2023-01-18T14:24:55.220Z,14.20
2023-01-18T14:27:25.464Z,14.00
2023-01-18T14:30:12.453Z,14.00
2023-01-18T14:32:44.883Z,14.00
2023-01-18T14:35:25.438Z,14.10
2023-01-18T14:38:16.769Z,14.10
2023-01-18T14:40:50.434Z,14.10
2023-01-18T14:43:21.840Z,14.00
2023-01-18T14:46:15.992Z,14.10
2023-01-18T14:48:53.365Z,14.20
2023-01-18T14:51:23.059Z,14.30
2023-01-18T14:53:59.547Z,14.10
2023-01-18T14:56:28.941Z,14.10
2023-01-18T14:59:24.267Z,14.00
2023-01-18T15:01:56.313Z,14.10
2023-01-18T15:04:29.330Z,14.20
2023-01-18T15:07:10.602Z,14.30
2023-01-18T15:09:39.595Z,14.10
2023-01-18T15:12:10.643Z,13.90
2023-01-18T15:14:45.043Z,13.80
2023-01-18T15:17:21.902Z,13.70
2023-01-18T15:19:57.927Z,13.70
2023-01-18T15:22:30.952Z,13.60
2023-01-18T15:25:02.659Z,13.70
2023-01-18T15:27:32.666Z,13.80
2023-01-18T15:30:01.862Z,13.90
2023-01-18T15:32:32.312Z,14.00
2023-01-18T15:35:00.769Z,13.90
2023-01-18T15:37:31.291Z,13.80
2023-01-18T15:39:59.804Z,13.90
2023-01-18T15:42:39.500Z,13.80
2023-01-18T15:45:21.456Z,13.70
2023-01-18T15:47:56.846Z,13.70
2023-01-18T15:50:30.966Z,13.80
2023-01-18T15:53:06.247Z,13.80
2023-01-18T15:55:45.791Z,13.80
2023-01-18T15:58:21.542Z,13.90
2023-01-18T16:00:55.900Z,13.80
2023-01-18T16:03:54.975Z,13.70
2023-01-18T16:06:22.044Z,13.60
2023-01-18T16:09:12.863Z,13.50
2023-01-18T16:11:56.796Z,13.50
2023-01-18T16:14:32.526Z,13.40
2023-01-18T16:17:15.384Z,13.40
2023-01-18T16:19:46.831Z,13.40
2023-01-18T16:22:19.443Z,13.40
2023-01-18T16:25:02.114Z,13.50
2023-01-18T16:27:31.447Z,13.40
2023-01-18T16:29:59.789Z,13.40
2023-01-18T16:32:27.940Z,13.30
2023-01-18T16:35:00.941Z,13.30
2023-01-18T16:37:28.325Z,13.40
2023-01-18T16:39:55.484Z,13.30
2023-01-18T16:42:29.586Z,13.40
2023-01-18T16:45:04.758Z,13.30
2023-01-18T16:47:31.830Z,13.30
2023-01-18T16:49:59.405Z,13.40
2023-01-18T16:52:27.324Z,13.40
2023-01-18T16:54:54.275Z,13.50
2023-01-18T16:57:23.188Z,13.50
2023-01-18T16:59:50.761Z,13.50
2023-01-18T17:02:17.835Z,13.50
2023-01-18T17:04:46.575Z,13.50
2023-01-18T17:07:13.785Z,13.50
2023-01-18T17:09:48.398Z,13.40
2023-01-18T17:12:16.760Z,13.40
2023-01-18T17:14:43.779Z,13.40
2023-01-18T17:17:11.349Z,13.40
2023-01-18T17:19:38.288Z,13.50
2023-01-18T17:22:06.481Z,13.40
2023-01-18T17:24:33.482Z,13.50
2023-01-18T17:27:01.336Z,13.30
2023-01-18T17:29:28.695Z,13.30
2023-01-18T17:31:55.735Z,13.30
2023-01-18T17:34:29.035Z,13.30
2023-01-18T17:37:00.153Z,13.40
2023-01-18T17:39:42.440Z,13.40
2023-01-18T17:42:19.290Z,13.40
2023-01-18T17:44:50.867Z,13.30
2023-01-18T17:47:17.857Z,13.20
2023-01-18T17:49:44.877Z,13.20
2023-01-18T17:52:11.966Z,13.20
2023-01-18T17:54:39.034Z,13.40
2023-01-18T17:57:05.977Z,13.50
2023-01-18T17:59:32.904Z,13.40
2023-01-18T18:01:59.895Z,13.20
2023-01-18T18:04:26.844Z,13.00
2023-01-18T18:06:58.338Z,12.90
2023-01-18T18:09:25.813Z,12.90
2023-01-18T18:11:52.905Z,13.00
2023-01-18T18:14:20.124Z,13.00
2023-01-18T18:16:47.249Z,13.30
2023-01-18T18:19:14.779Z,13.10
2023-01-18T18:21:43.004Z,13.10
2023-01-18T18:24:10.132Z,13.10
2023-01-18T18:26:37.134Z,13.00
2023-01-18T18:29:04.438Z,13.00
2023-01-18T18:31:31.617Z,12.60
2023-01-18T18:33:58.682Z,12.30
2023-01-18T18:36:28.443Z,12.20
2023-01-18T18:38:55.521Z,12.10
2023-01-18T18:41:22.526Z,12.60
2023-01-18T18:43:49.547Z,12.60
2023-01-18T18:46:16.558Z,12.20
2023-01-18T18:48:43.699Z,11.70
2023-01-18T18:51:10.926Z,11.40
2023-01-18T18:53:39.682Z,11.00
2023-01-18T18:56:11.551Z,11.10
2023-01-18T18:58:39.944Z,11.20
2023-01-18T19:01:08.075Z,11.40
2023-01-18T19:03:36.064Z,11.60
2023-01-18T19:06:03.076Z,11.90
2023-01-18T19:08:31.083Z,12.10
2023-01-18T19:10:58.277Z,12.20
2023-01-18T19:13:25.463Z,12.20
2023-01-18T19:15:52.830Z,12.10
2023-01-18T19:18:20.141Z,12.20
2023-01-18T19:20:49.724Z,12.20
2023-01-18T19:23:16.789Z,12.40
2023-01-18T19:25:43.904Z,12.40
2023-01-18T19:28:10.832Z,12.40
2023-01-18T19:30:41.463Z,12.60
2023-01-18T19:33:09.293Z,12.70
2023-01-18T19:35:41.198Z,12.70
2023-01-18T19:38:08.531Z,12.80
2023-01-18T19:40:36.476Z,12.90
2023-01-18T19:43:03.660Z,12.90
2023-01-18T19:45:31.496Z,13.00
2023-01-18T19:48:00.150Z,13.00
2023-01-18T19:50:29.232Z,12.90
2023-01-18T19:52:57.096Z,12.90
2023-01-18T19:55:25.129Z,13.00
2023-01-18T19:57:55.966Z,13.00
2023-01-18T20:00:23.425Z,13.00
2023-01-18T20:02:50.752Z,13.10
2023-01-18T20:05:17.885Z,13.20
2023-01-18T20:07:44.991Z,13.30
2023-01-18T20:10:12.457Z,13.00
2023-01-18T20:12:39.699Z,13.00
2023-01-18T20:15:07.162Z,13.00
2023-01-18T20:17:34.335Z,13.00
2023-01-18T20:20:01.673Z,13.00
2023-01-18T20:22:28.837Z,13.10
2023-01-18T20:24:55.834Z,13.10
2023-01-18T20:27:22.822Z,13.10
2023-01-18T20:29:49.784Z,13.20
2023-01-18T20:32:17.984Z,13.10
2023-01-18T20:34:47.330Z,13.10
2023-01-18T20:37:16.550Z,13.40
2023-01-18T20:39:43.711Z,13.40
2023-01-18T20:42:10.776Z,13.50
2023-01-18T20:44:37.849Z,13.70
2023-01-18T20:47:04.839Z,13.70
2023-01-18T20:49:39.358Z,13.80
2023-01-18T20:52:07.615Z,13.70
2023-01-18T20:54:37.844Z,13.80
2023-01-18T20:57:05.904Z,13.80
2023-01-18T20:59:33.275Z,14.00
2023-01-18T21:02:00.427Z,13.90
2023-01-18T21:04:27.638Z,13.70
2023-01-18T21:06:57.374Z,13.60
2023-01-18T21:09:25.395Z,13.60
2023-01-18T21:11:52.373Z,13.60
2023-01-18T21:14:19.371Z,13.60
2023-01-18T21:16:46.627Z,13.50
2023-01-18T21:19:13.692Z,13.40
2023-01-18T21:21:40.748Z,13.50
2023-01-18T21:24:08.057Z,13.30
2023-01-18T21:26:36.145Z,13.10
2023-01-18T21:29:03.934Z,12.90
2023-01-18T21:31:31.054Z,12.80
2023-01-18T21:33:58.097Z,12.70
2023-01-18T21:36:25.130Z,12.60
2023-01-18T21:38:52.283Z,12.90
2023-01-18T21:41:37.613Z,13.10
2023-01-18T21:44:23.431Z,13.20
2023-01-18T21:46:52.362Z,13.50
2023-01-18T21:52:44.526Z,13.70
2023-01-18T21:55:11.926Z,13.30
2023-01-18T21:57:38.927Z,12.80
2023-01-18T22:00:06.733Z,12.80
2023-01-18T22:02:37.097Z,13.00
2023-01-18T22:05:04.845Z,13.00
2023-01-18T22:07:34.251Z,13.00
2023-01-18T22:10:07.034Z,13.00
2023-01-18T22:12:36.028Z,12.90
2023-01-18T22:15:04.901Z,12.90
2023-01-18T22:17:32.103Z,13.00
2023-01-18T22:19:59.949Z,13.10
2023-01-18T22:22:27.056Z,13.10
2023-01-18T22:24:54.172Z,13.30
2023-01-18T22:27:21.158Z,13.20
2023-01-18T22:29:48.241Z,13.20
2023-01-18T22:32:15.261Z,13.10
2023-01-18T22:34:42.226Z,13.00
2023-01-18T22:37:09.912Z,13.10
2023-01-18T22:39:36.901Z,13.10
2023-01-18T22:42:04.193Z,13.10
2023-01-18T22:44:32.787Z,13.30
2023-01-18T22:46:59.803Z,13.20
2023-01-18T22:49:26.844Z,13.30
2023-01-18T22:51:53.765Z,13.30
2023-01-18T22:54:22.883Z,13.50
2023-01-18T22:56:49.880Z,13.60
2023-01-18T22:59:17.089Z,13.70
2023-01-18T23:01:44.170Z,13.70
2023-01-18T23:04:11.361Z,13.80
2023-01-18T23:06:48.065Z,13.90
2023-01-18T23:09:18.067Z,13.80
2023-01-18T23:11:47.540Z,13.70
2023-01-18T23:14:33.276Z,13.80
2023-01-18T23:17:18.647Z,14.00
2023-01-18T23:19:45.744Z,14.00
2023-01-18T23:22:12.763Z,13.90
2023-01-18T23:24:40.227Z,14.00
2023-01-18T23:27:10.163Z,13.80
2023-01-18T23:29:39.074Z,13.80
2023-01-18T23:32:06.519Z,13.70
2023-01-18T23:34:33.624Z,13.50
2023-01-18T23:37:00.815Z,13.60
2023-01-18T23:39:46.463Z,13.40
2023-01-18T23:42:32.815Z,13.50
2023-01-18T23:45:18.327Z,13.40
2023-01-18T23:48:03.993Z,13.30
2023-01-18T23:50:49.576Z,13.40
2023-01-18T23:53:35.022Z,13.30
2023-01-18T23:56:02.226Z,13.40
2023-01-18T23:58:29.218Z,13.30
